Time;durP1;ratioP1;P1;durP2;ratioP2;P2;SDS_P1;SDS_P2;PMS_P1;PMS_P2;Temp;Humidity;BMP_temperature;BMP_pressure;BME280_temperature;BME280_humidity;BME280_pressure;Samples;Min_cycle;Max_cycle;Signal;HPM_P1;HPM_P2
2021/06/11 00:01:55;;;;;;;6.25;3.80;;;17.30;64.00;;;;;;6186867;23;20017;-74
2021/06/11 00:04:25;;;;;;;9.98;4.13;;;17.20;63.90;;;;;;6160243;23;20009;-74
2021/06/11 00:06:52;;;;;;;6.85;3.63;;;17.30;64.50;;;;;;6160391;23;20338;-74
2021/06/11 00:09:18;;;;;;;11.07;4.15;;;17.20;64.30;;;;;;6160279;23;20009;-74
2021/06/11 00:11:45;;;;;;;;;;;17.30;64.60;;;;;;6160827;23;20017;-74
2021/06/11 00:14:12;;;;;;;;;;;17.20;63.50;;;;;;6160386;23;19916;-74
2021/06/11 00:16:38;;;;;;;8.45;3.97;;;17.10;63.50;;;;;;6160268;23;20002;-74
2021/06/11 00:19:07;;;;;;;;;;;17.10;64.50;;;;;;6136220;23;20016;-74
2021/06/11 00:21:35;;;;;;;6.43;3.40;;;17.10;63.70;;;;;;6135418;23;19978;-74
2021/06/11 00:24:02;;;;;;;8.55;3.60;;;17.10;64.40;;;;;;6186585;23;20011;-74
2021/06/11 00:26:28;;;;;;;8.90;3.92;;;17.10;64.90;;;;;;6159968;23;20017;-75
2021/06/11 00:28:54;;;;;;;;;;;17.10;64.90;;;;;;6136115;23;20040;-74
2021/06/11 00:31:22;;;;;;;11.45;3.97;;;17.10;64.10;;;;;;6160056;23;19924;-74
2021/06/11 00:33:49;;;;;;;8.20;4.30;;;17.00;64.80;;;;;;6160047;23;20013;-74
2021/06/11 00:36:15;;;;;;;11.13;4.45;;;17.10;65.20;;;;;;6186334;23;20021;-74
2021/06/11 00:38:41;;;;;;;;;;;17.00;65.30;;;;;;6135594;23;20181;-75
2021/06/11 00:41:07;;;;;;;7.50;4.15;;;17.10;64.50;;;;;;6185755;23;20349;-74
2021/06/11 00:43:33;;;;;;;7.55;3.72;;;17.00;65.00;;;;;;6159754;23;20009;-74
2021/06/11 00:45:59;;;;;;;;;;;17.10;65.40;;;;;;6186860;23;20009;-74
2021/06/11 00:48:26;;;;;;;10.77;4.47;;;17.00;64.60;;;;;;6159811;23;19963;-73
2021/06/11 00:50:51;;;;;;;;;;;17.00;64.60;;;;;;6160434;23;20019;-74
2021/06/11 00:53:18;;;;;;;9.68;5.05;;;17.10;64.80;;;;;;6160001;23;19908;-74
2021/06/11 00:55:49;;;;;;;9.95;5.32;;;17.00;65.60;;;;;;6135357;23;20013;-75
2021/06/11 00:58:18;;;;;;;14.70;6.00;;;17.00;65.80;;;;;;6159888;23;20088;-73
2021/06/11 01:00:48;;;;;;;9.57;4.40;;;17.00;66.10;;;;;;6135499;23;20063;-74
2021/06/11 01:03:15;;;;;;;10.60;4.35;;;16.90;65.10;;;;;;6186078;23;20017;-74
2021/06/11 01:05:42;;;;;;;9.40;4.30;;;16.80;65.30;;;;;;6159864;23;20076;-74
2021/06/11 01:08:11;;;;;;;11.90;3.90;;;16.80;64.70;;;;;;6186663;23;20020;-74
2021/06/11 01:10:37;;;;;;;8.18;3.75;;;16.70;65.20;;;;;;6159563;23;20047;-74
2021/06/11 01:13:04;;;;;;;10.75;4.03;;;16.60;64.60;;;;;;6135174;23;20036;-74
2021/06/11 01:15:34;;;;;;;11.77;3.97;;;16.60;65.20;;;;;;6159698;23;20023;-74
2021/06/11 01:18:03;;;;;;;8.60;3.75;;;16.50;64.90;;;;;;6160243;23;20386;-74
2021/06/11 01:20:33;;;;;;;7.50;4.00;;;16.40;64.80;;;;;;6159653;23;20059;-74
2021/06/11 01:23:55;;;;;;;8.48;4.07;;;16.40;65.60;;;;;;6159973;23;20013;-74
2021/06/11 01:26:44;;;;;;;8.02;3.75;;;16.40;65.40;;;;;;6185799;23;20020;-74
2021/06/11 01:29:32;;;;;;;12.32;4.63;;;16.30;65.50;;;;;;6159729;23;20020;-74
2021/06/11 01:32:03;;;;;;;11.85;3.97;;;16.30;65.50;;;;;;6159635;23;20009;-74
2021/06/11 01:34:37;;;;;;;9.85;4.25;;;16.20;65.80;;;;;;6159571;23;20009;-74
2021/06/11 01:37:41;;;;;;;9.48;3.85;;;16.10;66.20;;;;;;6159673;23;20038;-74
2021/06/11 01:40:10;;;;;;;8.38;3.80;;;16.10;66.20;;;;;;6185463;23;20060;-74
2021/06/11 01:42:41;;;;;;;11.25;3.92;;;16.10;66.30;;;;;;6159293;23;20391;-74
2021/06/11 01:45:34;;;;;;;6.47;3.60;;;16.10;66.50;;;;;;6134744;23;20009;-74
2021/06/11 01:48:01;;;;;;;7.55;4.25;;;16.00;66.40;;;;;;6185590;23;20080;-74
2021/06/11 01:50:31;;;;;;;;;;;16.00;66.50;;;;;;6186204;23;20013;-74
2021/06/11 01:52:59;;;;;;;8.15;4.30;;;16.00;65.60;;;;;;6159484;23;19917;-74
2021/06/11 01:55:29;;;;;;;9.48;4.32;;;15.90;66.20;;;;;;6159299;23;20012;-74
2021/06/11 01:57:58;;;;;;;10.70;4.95;;;15.90;66.60;;;;;;6159553;23;20017;-74
2021/06/11 02:00:28;;;;;;;8.38;5.03;;;15.90;66.80;;;;;;6159302;23;20005;-74
2021/06/11 02:02:56;;;;;;;7.55;4.50;;;15.90;67.10;;;;;;6134526;23;20020;-74
2021/06/11 02:05:23;;;;;;;10.43;5.05;;;15.90;67.50;;;;;;6159616;23;20012;-74
2021/06/11 02:07:50;;;;;;;9.38;4.65;;;15.90;67.20;;;;;;6159271;23;20021;-74
2021/06/11 02:10:23;;;;;;;11.43;5.70;;;15.90;67.60;;;;;;6159130;23;20009;-74
2021/06/11 02:12:54;;;;;;;12.30;4.85;;;16.00;68.10;;;;;;6159933;23;20092;-74
2021/06/11 02:15:22;;;;;;;10.48;5.22;;;16.00;68.10;;;;;;6134538;23;20087;-74
2021/06/11 02:17:51;;;;;;;11.23;5.40;;;16.00;68.10;;;;;;6134617;23;20025;-74
2021/06/11 02:20:23;;;;;;;8.48;4.60;;;16.00;68.30;;;;;;6159163;23;20426;-74
2021/06/11 02:22:49;;;;;;;10.27;5.00;;;15.90;68.40;;;;;;6159603;23;20013;-74
2021/06/11 02:25:36;;;;;;;11.48;4.75;;;15.90;68.60;;;;;;6159066;23;20080;-74
2021/06/11 02:28:03;;;;;;;8.77;5.03;;;15.90;68.70;;;;;;6159303;23;20024;-74
2021/06/11 02:30:29;;;;;;;7.82;3.58;;;15.90;68.20;;;;;;6185095;23;20011;-74
2021/06/11 02:32:55;;;;;;;6.22;3.40;;;16.00;69.00;;;;;;6159264;23;20083;-74
2021/06/11 02:35:41;;;;;;;6.68;3.70;;;16.10;69.30;;;;;;6134385;23;20342;-73
2021/06/11 02:38:08;;;;;;;6.85;3.20;;;16.20;68.90;;;;;;6159158;23;20427;-74
2021/06/11 02:40:34;;;;;;;5.38;2.70;;;16.50;68.20;;;;;;6158624;23;20017;-74
2021/06/11 02:43:25;;;;;;;7.22;2.85;;;16.70;67.10;;;;;;6159059;23;20020;-74
2021/06/11 02:46:09;;;;;;;6.43;2.83;;;16.90;66.70;;;;;;6158766;23;20009;-74
2021/06/11 02:48:44;;;;;;;9.45;4.25;;;17.00;66.30;;;;;;6134296;23;20346;-74
2021/06/11 02:51:37;;;;;;;10.48;4.65;;;17.00;65.80;;;;;;6158781;23;20028;-74
2021/06/11 02:54:10;;;;;;;8.95;4.80;;;16.90;67.20;;;;;;6159047;23;20032;-74
2021/06/11 02:57:16;;;;;;;8.73;4.90;;;16.80;68.20;;;;;;6158894;23;20070;-74
2021/06/11 02:59:49;;;;;;;10.23;4.53;;;16.70;68.20;;;;;;6158941;23;20084;-74
2021/06/11 03:03:12;;;;;;;11.40;4.80;;;16.70;69.10;;;;;;6133896;23;20017;-73
2021/06/11 03:05:39;;;;;;;12.02;4.60;;;16.70;68.90;;;;;;6185042;23;20005;-74
2021/06/11 03:08:09;;;;;;;7.72;3.28;;;16.70;68.60;;;;;;6157697;23;20053;-74
2021/06/11 03:10:37;;;;;;;8.50;3.03;;;16.90;67.80;;;;;;6159646;23;20017;-73
2021/06/11 03:13:05;;;;;;;7.70;2.95;;;17.10;67.10;;;;;;6158712;23;20047;-74
2021/06/11 03:15:35;;;;;;;8.48;2.85;;;17.20;66.40;;;;;;6158666;23;20016;-73
2021/06/11 03:18:23;;;;;;;6.25;2.90;;;17.40;65.70;;;;;;6159090;23;20048;-74
2021/06/11 03:20:51;;;;;;;6.38;2.85;;;17.60;65.20;;;;;;6185093;23;20009;-74
2021/06/11 03:23:58;;;;;;;8.82;2.72;;;17.60;64.70;;;;;;6134012;23;20096;-73
2021/06/11 03:26:36;;;;;;;7.18;2.90;;;17.80;64.30;;;;;;6158349;23;20428;-74
2021/06/11 03:29:09;;;;;;;5.82;2.28;;;17.90;63.70;;;;;;6158759;23;20060;-73
2021/06/11 03:31:41;;;;;;;6.82;2.20;;;18.00;63.10;;;;;;6133878;23;20079;-73
2021/06/11 03:34:15;;;;;;;6.18;2.60;;;18.20;62.60;;;;;;6158765;23;20385;-74
2021/06/11 03:36:45;;;;;;;6.22;2.53;;;18.30;62.10;;;;;;6158777;23;20017;-73
2021/06/11 03:40:07;;;;;;;5.55;2.65;;;18.30;61.70;;;;;;6158566;23;20013;-74
2021/06/11 03:42:37;;;;;;;6.05;2.80;;;18.50;61.60;;;;;;6185087;23;20075;-73
2021/06/11 03:45:05;;;;;;;5.20;2.70;;;18.60;60.80;;;;;;6134077;23;20332;-74
2021/06/11 03:47:35;;;;;;;6.53;2.50;;;18.60;60.70;;;;;;6185107;23;20330;-73
2021/06/11 03:50:04;;;;;;;7.75;3.05;;;18.70;60.40;;;;;;6133882;23;20435;-73
2021/06/11 03:52:34;;;;;;;6.32;2.83;;;18.80;60.20;;;;;;6158577;23;20464;-73
2021/06/11 03:55:56;;;;;;;5.80;2.58;;;18.80;59.80;;;;;;6158653;23;20364;-73
2021/06/11 03:58:38;;;;;;;6.50;2.22;;;18.90;59.50;;;;;;6184768;23;20083;-74
2021/06/11 04:01:08;;;;;;;6.80;2.30;;;19.00;59.10;;;;;;6158998;23;20372;-73
2021/06/11 04:03:42;;;;;;;5.07;2.65;;;19.00;58.80;;;;;;6158599;23;20501;-73
2021/06/11 04:07:05;;;;;;;7.30;3.05;;;19.10;58.80;;;;;;6134485;23;20014;-73
2021/06/11 04:10:15;;;;;;;8.00;2.60;;;19.10;58.80;;;;;;6158429;23;20103;-73
2021/06/11 04:13:06;;;;;;;7.55;2.40;;;19.20;58.40;;;;;;6185023;23;20016;-74
2021/06/11 04:15:48;;;;;;;6.13;2.25;;;19.20;58.20;;;;;;6160107;23;20048;-74
2021/06/11 04:18:22;;;;;;;7.97;2.42;;;19.30;58.30;;;;;;6187067;23;20091;-73
2021/06/11 04:20:53;;;;;;;3.97;1.83;;;19.30;58.00;;;;;;6186608;23;20307;-73
2021/06/11 04:23:23;;;;;;;5.63;2.60;;;19.30;57.80;;;;;;6160229;23;20092;-73
2021/06/11 04:25:53;;;;;;;6.85;2.47;;;19.30;57.90;;;;;;6135404;23;20386;-73
2021/06/11 04:28:20;;;;;;;5.28;2.38;;;19.40;57.80;;;;;;6160167;23;20013;-74
2021/06/11 04:30:47;;;;;;;8.38;2.53;;;19.40;57.60;;;;;;6160059;23;20013;-73
2021/06/11 04:33:32;;;;;;;12.13;2.60;;;19.40;57.60;;;;;;6160120;23;20095;-73
2021/06/11 04:35:59;;;;;;;11.68;2.60;;;19.50;57.60;;;;;;6135333;23;20016;-74
2021/06/11 04:38:26;;;;;;;7.80;2.70;;;19.50;57.00;;;;;;6159283;23;20016;-73
2021/06/11 04:40:52;;;;;;;5.57;2.38;;;19.50;57.00;;;;;;6135127;23;20083;-74
2021/06/11 04:43:29;;;;;;;4.63;2.00;;;19.60;57.50;;;;;;6135275;23;20083;-73
2021/06/11 04:45:55;;;;;;;6.10;1.90;;;19.60;57.60;;;;;;6186217;23;20013;-73
2021/06/11 04:48:25;;;;;;;;;;;19.70;57.40;;;;;;6186702;23;20080;-74
2021/06/11 04:51:00;;;;;;;5.20;1.98;;;19.70;56.90;;;;;;6186057;23;20241;-73
2021/06/11 04:53:26;;;;;;;;;;;19.70;56.90;;;;;;6160271;23;20023;-73
2021/06/11 04:55:52;;;;;;;5.55;1.88;;;19.80;56.40;;;;;;6159898;23;19908;-74
2021/06/11 04:58:18;;;;;;;;;;;19.80;56.50;;;;;;6135660;23;20044;-74
2021/06/11 05:00:45;;;;;;;4.28;1.83;;;19.90;56.70;;;;;;6159851;23;19912;-74
2021/06/11 05:03:12;;;;;;;5.88;1.90;;;19.90;56.40;;;;;;6135540;23;20093;-73
2021/06/11 05:05:38;;;;;;;6.90;2.15;;;19.90;56.30;;;;;;6159771;23;20040;-73
2021/06/11 05:08:05;;;;;;;5.68;1.90;;;19.90;56.30;;;;;;6159918;23;20021;-73
2021/06/11 05:10:31;;;;;;;10.93;1.98;;;19.90;55.50;;;;;;6134939;23;20438;-73
2021/06/11 05:12:58;;;;;;;10.93;2.35;;;20.00;56.10;;;;;;6159747;23;20072;-73
2021/06/11 05:15:24;;;;;;;7.10;2.30;;;20.00;55.90;;;;;;6134987;23;20100;-73
2021/06/11 05:17:51;;;;;;;6.80;1.88;;;20.00;55.90;;;;;;6186432;23;20016;-73
2021/06/11 05:20:17;;;;;;;;;;;20.10;56.00;;;;;;6160209;23;20009;-74
2021/06/11 05:22:43;;;;;;;7.63;2.50;;;20.20;55.90;;;;;;6159759;23;19974;-74
2021/06/11 05:25:10;;;;;;;7.38;2.08;;;20.20;55.70;;;;;;6134932;23;20047;-73
2021/06/11 05:27:36;;;;;;;8.00;1.85;;;20.20;55.50;;;;;;6134655;23;20453;-74
2021/06/11 05:30:04;;;;;;;4.93;2.67;;;20.20;55.40;;;;;;6159646;23;20048;-73
2021/06/11 05:32:30;;;;;;;8.00;2.50;;;20.20;55.50;;;;;;6159597;23;20017;-73
2021/06/11 05:34:56;;;;;;;9.75;2.97;;;20.20;56.50;;;;;;6159663;23;20408;-73
2021/06/11 05:37:23;;;;;;;;;;;20.30;57.20;;;;;;6186577;23;20398;-74
2021/06/11 05:39:49;;;;;;;4.35;2.17;;;20.40;56.50;;;;;;6185460;23;19912;-74
2021/06/11 05:42:15;;;;;;;4.13;2.08;;;20.40;57.80;;;;;;6159555;23;20023;-73
2021/06/11 05:44:41;;;;;;;;;;;20.40;57.70;;;;;;6160150;23;20005;-74
2021/06/11 05:47:08;;;;;;;6.25;2.53;;;20.60;56.80;;;;;;6134710;23;19912;-74
2021/06/11 05:49:36;;;;;;;15.57;2.63;;;20.70;58.00;;;;;;6159866;23;20017;-74
2021/06/11 05:52:03;;;;;;;4.57;2.20;;;20.70;58.10;;;;;;6185681;23;20017;-74
2021/06/11 05:54:29;;;;;;;7.30;3.58;;;20.80;57.50;;;;;;6159047;23;20092;-73
2021/06/11 05:57:15;;;;;;;7.13;4.05;;;20.80;59.30;;;;;;6185701;23;20021;-73
2021/06/11 05:59:41;;;;;;;7.35;3.83;;;20.40;60.50;;;;;;6134593;23;20045;-73
2021/06/11 06:02:11;;;;;;;9.45;4.18;;;20.30;61.40;;;;;;6159404;23;20040;-73
2021/06/11 06:04:37;;;;;;;6.88;4.07;;;20.20;61.90;;;;;;6185536;23;20088;-74
2021/06/11 06:07:04;;;;;;;7.90;4.15;;;20.30;62.10;;;;;;6185718;23;20013;-73
2021/06/11 06:09:32;;;;;;;8.95;4.63;;;20.30;62.00;;;;;;6159250;23;20016;-73
2021/06/11 06:11:58;;;;;;;10.32;4.80;;;20.20;62.20;;;;;;6185488;23;20039;-74
2021/06/11 06:14:24;;;;;;;;;;;20.30;62.20;;;;;;6186043;23;20579;-73
2021/06/11 06:16:51;;;;;;;10.30;4.47;;;20.20;61.10;;;;;;6159105;23;19912;-74
2021/06/11 06:19:17;;;;;;;8.15;4.97;;;20.10;63.00;;;;;;6159070;23;20079;-74
2021/06/11 06:21:43;;;;;;;8.32;4.63;;;20.10;64.20;;;;;;6185345;23;20040;-74
2021/06/11 06:24:10;;;;;;;9.30;4.68;;;20.10;63.10;;;;;;6159081;23;20013;-73
2021/06/11 06:26:36;;;;;;;8.05;4.85;;;20.10;63.20;;;;;;6185126;23;20386;-74
2021/06/11 06:29:03;;;;;;;11.00;5.15;;;20.10;63.60;;;;;;6185309;23;20080;-74
2021/06/11 06:31:29;;;;;;;11.43;4.85;;;20.20;62.90;;;;;;6158726;23;20017;-74
2021/06/11 06:33:56;;;;;;;8.80;5.07;;;20.20;63.10;;;;;;6185358;23;20385;-74
2021/06/11 06:36:25;;;;;;;9.05;5.20;;;20.40;64.00;;;;;;6185271;23;20060;-74
2021/06/11 06:38:53;;;;;;;9.57;4.32;;;20.50;63.00;;;;;;6184884;23;20005;-73
2021/06/11 06:41:22;;;;;;;13.18;4.97;;;20.60;61.90;;;;;;6159320;23;20014;-74
2021/06/11 06:43:48;;;;;;;11.07;5.00;;;20.70;62.10;;;;;;6134517;23;20077;-73
2021/06/11 06:49:02;;;;;;;7.72;4.60;;;20.80;62.30;;;;;;6162848;23;20016;-74
2021/06/11 06:51:28;;;;;;;9.95;4.82;;;20.80;62.20;;;;;;6158564;23;20021;-74
2021/06/11 06:53:55;;;;;;;8.48;4.57;;;20.90;61.30;;;;;;6158818;23;20009;-74
2021/06/11 06:56:24;;;;;;;8.85;5.25;;;21.00;61.60;;;;;;6158859;23;20032;-74
2021/06/11 06:58:52;;;;;;;8.52;4.93;;;21.10;61.60;;;;;;6185128;23;20017;-74
2021/06/11 07:01:19;;;;;;;8.75;5.60;;;21.20;61.40;;;;;;6158805;23;20105;-74
2021/06/11 07:03:45;;;;;;;10.80;4.93;;;21.30;60.40;;;;;;6158538;23;20040;-74
2021/06/11 07:06:13;;;;;;;8.95;4.72;;;21.60;60.60;;;;;;6158809;23;20148;-74
2021/06/11 07:08:40;;;;;;;9.23;5.38;;;21.80;59.80;;;;;;6185026;23;20009;-74
2021/06/11 07:11:06;;;;;;;8.57;4.97;;;21.90;59.20;;;;;;6134000;23;20005;-74
2021/06/11 07:13:33;;;;;;;10.02;4.95;;;22.10;58.60;;;;;;6158780;23;20013;-74
2021/06/11 07:16:00;;;;;;;9.50;4.45;;;22.60;57.60;;;;;;6133992;23;20012;-74
2021/06/11 07:18:27;;;;;;;7.88;4.10;;;23.00;55.70;;;;;;6184993;23;20062;-73
2021/06/11 07:20:53;;;;;;;7.90;4.20;;;23.40;55.10;;;;;;6158658;23;20047;-74
2021/06/11 07:23:19;;;;;;;6.53;3.60;;;23.60;54.10;;;;;;6158503;23;20327;-74
2021/06/11 07:25:45;;;;;;;10.02;4.03;;;23.70;54.20;;;;;;6184984;23;20036;-74
2021/06/11 07:28:12;;;;;;;6.30;3.38;;;23.70;54.00;;;;;;6185467;23;20021;-74
2021/06/11 07:30:39;;;;;;;10.85;3.97;;;23.80;53.70;;;;;;6158516;23;20461;-74
2021/06/11 07:33:05;;;;;;;7.53;4.18;;;23.70;52.60;;;;;;6158827;23;20024;-73
2021/06/11 07:35:32;;;;;;;7.07;3.38;;;23.80;52.60;;;;;;6134079;23;20005;-74
2021/06/11 07:38:03;;;;;;;5.95;2.90;;;23.80;51.80;;;;;;6185335;23;20024;-74
2021/06/11 07:40:30;;;;;;;5.63;2.88;;;23.80;51.70;;;;;;6129425;23;20029;-74
2021/06/11 07:42:57;;;;;;;6.95;3.58;;;23.90;51.20;;;;;;6155694;23;20019;-74
2021/06/11 07:45:24;;;;;;;9.00;3.50;;;24.00;51.50;;;;;;6153597;23;20006;-74
2021/06/11 07:47:50;;;;;;;5.78;3.15;;;24.10;51.30;;;;;;6129053;23;20026;-74
2021/06/11 07:50:17;;;;;;;6.80;2.97;;;24.20;50.60;;;;;;6130230;23;20013;-74
2021/06/11 07:52:44;;;;;;;6.82;3.05;;;24.30;49.70;;;;;;6130840;23;20955;-74
2021/06/11 07:55:12;;;;;;;7.45;2.83;;;24.40;49.70;;;;;;6155468;23;20006;-74
2021/06/11 07:57:38;;;;;;;13.20;2.92;;;24.50;49.00;;;;;;6155621;23;20024;-74
2021/06/11 08:00:06;;;;;;;8.88;2.80;;;24.60;49.20;;;;;;6155368;23;20407;-74
2021/06/11 08:02:32;;;;;;;9.50;3.00;;;24.60;48.80;;;;;;6130967;23;20394;-74
2021/06/11 08:04:59;;;;;;;5.57;3.00;;;24.80;48.70;;;;;;6156958;23;20374;-74
2021/06/11 08:10:10;;;;;;;5.60;2.80;;;25.10;47.30;;;;;;6155753;23;20025;-74
2021/06/11 08:12:36;;;;;;;10.40;2.90;;;25.10;44.60;;;;;;6157075;23;20450;-73
2021/06/11 08:15:05;;;;;;;9.30;2.80;;;25.20;46.30;;;;;;6156833;23;20013;-74
2021/06/11 08:17:38;;;;;;;4.63;2.30;;;25.30;46.10;;;;;;6155218;23;20028;-74
2021/06/11 08:20:07;;;;;;;4.78;2.67;;;25.30;46.00;;;;;;6130906;23;20085;-74
2021/06/11 08:22:36;;;;;;;5.78;2.65;;;25.30;46.10;;;;;;6155275;23;20029;-74
2021/06/11 08:25:05;;;;;;;6.45;2.83;;;25.30;45.90;;;;;;6131086;23;20005;-74
2021/06/11 08:27:31;;;;;;;8.88;2.92;;;25.20;46.00;;;;;;6156972;23;20024;-74
2021/06/11 08:29:58;;;;;;;6.55;2.72;;;25.20;46.50;;;;;;6155227;23;20012;-74
2021/06/11 08:32:24;;;;;;;6.45;3.20;;;25.20;46.40;;;;;;6155087;23;20122;-74
2021/06/11 08:34:51;;;;;;;6.60;2.80;;;25.30;46.50;;;;;;6155215;23;20005;-74
2021/06/11 08:37:20;;;;;;;7.78;2.90;;;25.40;46.30;;;;;;6155129;23;20052;-73
2021/06/11 08:39:49;;;;;;;9.07;3.45;;;25.40;45.90;;;;;;6154991;23;20386;-74
2021/06/11 08:42:16;;;;;;;5.35;2.70;;;25.30;46.10;;;;;;6156869;23;20025;-74
2021/06/11 08:44:45;;;;;;;5.07;2.80;;;25.30;45.30;;;;;;6155513;23;20403;-74
2021/06/11 08:47:11;;;;;;;5.60;2.42;;;25.40;45.40;;;;;;6094554;23;20082;-74
2021/06/11 08:49:37;;;;;;;6.82;3.00;;;25.40;45.30;;;;;;6094907;23;20538;-74
2021/06/11 08:52:05;;;;;;;5.78;2.65;;;25.60;45.30;;;;;;6094601;23;20101;-74
2021/06/11 08:54:32;;;;;;;6.20;2.45;;;25.60;45.70;;;;;;6094843;23;20389;-74
2021/06/11 08:56:58;;;;;;;5.63;2.72;;;25.60;45.00;;;;;;6094782;23;20053;-74
2021/06/11 08:59:25;;;;;;;6.82;2.70;;;25.80;43.60;;;;;;6094775;23;20010;-74
2021/06/11 09:01:51;;;;;;;6.15;3.45;;;25.80;44.20;;;;;;6069764;23;20018;-74
2021/06/11 09:04:57;;;;;;;6.07;2.80;;;25.80;43.20;;;;;;6070739;23;20537;-73
2021/06/11 09:07:50;;;;;;;4.78;2.58;;;25.80;43.90;;;;;;6070391;23;20018;-74
2021/06/11 09:10:25;;;;;;;4.63;2.33;;;25.80;43.20;;;;;;6094813;23;20088;-74
2021/06/11 09:12:53;;;;;;;5.03;2.40;;;25.80;41.80;;;;;;6070644;23;20033;-74
2021/06/11 09:15:20;;;;;;;4.75;2.15;;;25.80;42.50;;;;;;6094694;23;20061;-74
2021/06/11 09:17:49;;;;;;;4.10;2.03;;;26.00;42.70;;;;;;6095753;23;20092;-73
2021/06/11 09:20:42;;;;;;;7.38;2.70;;;26.10;41.80;;;;;;6154769;23;20017;-74
2021/06/11 09:23:09;;;;;;;8.95;2.88;;;26.40;42.30;;;;;;6131398;23;20079;-74
2021/06/11 09:25:56;;;;;;;19.60;2.70;;;26.50;42.10;;;;;;6156575;23;20037;-74
2021/06/11 09:28:43;;;;;;;5.38;2.22;;;26.80;41.50;;;;;;6154588;23;20041;-73
2021/06/11 09:31:09;;;;;;;6.10;2.28;;;27.10;41.20;;;;;;6154633;23;20036;-73
2021/06/11 09:33:42;;;;;;;7.63;2.40;;;27.30;39.70;;;;;;6154908;23;20446;-73
2021/06/11 09:36:14;;;;;;;4.40;2.05;;;27.40;39.50;;;;;;6156049;23;20037;-74
2021/06/11 09:38:47;;;;;;;7.00;2.42;;;27.90;38.90;;;;;;6155653;23;20016;-75
2021/06/11 09:41:13;;;;;;;6.35;2.10;;;28.90;38.00;;;;;;6159957;23;20373;-74
2021/06/11 09:43:58;;;;;;;7.00;2.22;;;29.80;36.70;;;;;;6185698;23;20241;-74
2021/06/11 09:46:25;;;;;;;7.22;2.15;;;30.70;35.10;;;;;;6185658;23;20021;-74
2021/06/11 09:48:53;;;;;;;4.07;2.10;;;31.40;33.50;;;;;;6185794;23;20052;-74
2021/06/11 09:51:39;;;;;;;3.97;1.90;;;31.90;32.70;;;;;;6159261;23;20021;-74
2021/06/11 09:54:45;;;;;;;13.05;2.80;;;32.50;31.40;;;;;;6159352;23;20033;-74
2021/06/11 09:57:22;;;;;;;6.53;2.38;;;33.30;30.20;;;;;;6185733;23;20013;-75
2021/06/11 09:59:49;;;;;;;7.78;2.47;;;33.80;29.00;;;;;;6134389;23;20005;-74
2021/06/11 10:02:17;;;;;;;4.97;2.10;;;34.50;28.90;;;;;;6159468;23;20017;-74
2021/06/11 10:04:45;;;;;;;7.55;2.30;;;34.90;27.10;;;;;;6185547;23;20009;-75
2021/06/11 10:07:13;;;;;;;4.68;2.30;;;35.30;27.30;;;;;;6159430;23;20497;-75
2021/06/11 10:09:49;;;;;;;4.55;2.38;;;35.90;26.10;;;;;;6159299;23;20055;-74
2021/06/11 10:12:16;;;;;;;5.88;2.30;;;36.40;25.50;;;;;;6158963;23;20031;-75
2021/06/11 10:14:42;;;;;;;10.00;2.40;;;37.10;25.90;;;;;;6185426;23;20009;-75
2021/06/11 10:17:11;;;;;;;6.38;2.30;;;37.60;24.80;;;;;;6158991;23;20020;-75
2021/06/11 10:19:44;;;;;;;7.07;2.28;;;38.30;24.30;;;;;;6185384;23;20012;-74
2021/06/11 10:22:10;;;;;;;7.25;2.20;;;38.70;23.30;;;;;;6159141;23;20027;-75
2021/06/11 10:24:37;;;;;;;4.03;2.13;;;39.20;22.50;;;;;;6134361;23;20035;-75
2021/06/11 10:27:04;;;;;;;4.95;2.00;;;39.80;22.20;;;;;;6158952;23;20033;-75
2021/06/11 10:29:32;;;;;;;7.57;2.60;;;40.20;21.60;;;;;;6185201;23;20081;-74
2021/06/11 10:32:01;;;;;;;6.57;2.38;;;40.80;22.00;;;;;;6158900;23;20017;-74
2021/06/11 10:35:05;;;;;;;8.27;2.22;;;41.20;20.70;;;;;;6158906;23;20013;-75
2021/06/11 10:37:50;;;;;;;3.45;1.95;;;41.70;21.30;;;;;;6134376;23;20029;-74
2021/06/11 10:40:33;;;;;;;8.93;1.95;;;41.70;20.50;;;;;;6185043;23;20084;-74
2021/06/11 10:43:28;;;;;;;4.55;2.10;;;41.10;20.80;;;;;;6185713;23;20020;-74
2021/06/11 10:45:57;;;;;;;7.07;2.63;;;41.10;21.60;;;;;;6158988;23;20055;-74
2021/06/11 10:49:06;;;;;;;5.00;1.95;;;41.60;20.40;;;;;;6183648;23;20080;-75
2021/06/11 10:51:51;;;;;;;4.05;2.00;;;41.80;20.50;;;;;;6158937;23;20390;-74
2021/06/11 10:54:23;;;;;;;10.10;2.22;;;42.40;19.50;;;;;;6158912;23;20457;-74
2021/06/11 10:57:00;;;;;;;5.20;1.98;;;42.90;18.80;;;;;;6158754;23;20096;-74
2021/06/11 10:59:38;;;;;;;4.10;1.95;;;43.50;19.10;;;;;;6185008;23;20013;-75
2021/06/11 11:02:09;;;;;;;3.28;1.80;;;44.00;18.90;;;;;;6134192;23;20450;-74
2021/06/11 11:04:56;;;;;;;4.03;2.15;;;44.40;17.90;;;;;;6134698;23;20009;-75
2021/06/11 11:07:50;;;;;;;4.57;1.90;;;44.00;18.00;;;;;;6185314;23;20013;-74
2021/06/11 11:10:54;;;;;;;5.38;2.08;;;44.50;17.40;;;;;;6185046;23;20013;-74
2021/06/11 11:13:39;;;;;;;4.30;2.28;;;44.90;17.50;;;;;;6185311;23;20108;-74
2021/06/11 11:16:23;;;;;;;4.90;2.30;;;44.90;17.00;;;;;;6158583;23;20506;-74
2021/06/11 11:18:50;;;;;;;5.10;2.13;;;45.30;17.30;;;;;;6185210;23;20021;-74
2021/06/11 11:21:40;;;;;;;7.13;2.17;;;45.80;16.20;;;;;;6158700;23;20374;-75
2021/06/11 11:24:11;;;;;;;5.32;2.38;;;46.20;16.60;;;;;;6159646;23;20339;-75
2021/06/11 11:26:56;;;;;;;5.80;2.38;;;46.60;15.60;;;;;;6136351;23;20096;-75
2021/06/11 11:29:22;;;;;;;5.13;2.25;;;47.40;15.80;;;;;;6160493;23;20076;-74
2021/06/11 11:31:51;;;;;;;4.65;2.47;;;47.60;15.20;;;;;;6160669;23;20041;-74
2021/06/11 11:34:17;;;;;;;4.10;2.13;;;47.20;15.00;;;;;;6160994;23;20016;-74
2021/06/11 11:36:44;;;;;;;3.10;1.83;;;47.30;15.10;;;;;;6160549;23;20017;-74
2021/06/11 11:39:15;;;;;;;4.00;2.22;;;47.10;14.90;;;;;;6160499;23;20068;-75
2021/06/11 11:41:41;;;;;;;5.07;2.00;;;47.00;14.80;;;;;;6160764;23;20076;-74
2021/06/11 11:44:08;;;;;;;6.63;2.53;;;47.40;14.10;;;;;;6160569;23;20005;-74
2021/06/11 11:46:34;;;;;;;3.85;2.15;;;47.70;14.80;;;;;;6186798;23;20021;-74
2021/06/11 11:49:01;;;;;;;3.97;2.08;;;48.40;14.90;;;;;;6160497;23;20350;-74
2021/06/11 11:51:27;;;;;;;5.50;2.58;;;48.60;14.20;;;;;;6160199;23;20071;-75
2021/06/11 11:53:55;;;;;;;4.38;2.35;;;48.90;14.10;;;;;;6135885;23;20032;-74
2021/06/11 11:56:22;;;;;;;3.67;2.22;;;48.90;13.90;;;;;;6160447;23;20017;-75
2021/06/11 11:58:48;;;;;;;4.82;2.35;;;49.70;14.20;;;;;;6186626;23;20015;-75
2021/06/11 12:01:14;;;;;;;6.75;2.33;;;49.80;12.80;;;;;;6186582;23;20021;-75
2021/06/11 12:03:40;;;;;;;4.70;2.42;;;49.90;13.00;;;;;;6160298;23;20005;-75
2021/06/11 12:06:07;;;;;;;27.75;3.17;;;49.80;13.20;;;;;;6160529;23;20009;-75
2021/06/11 12:08:33;;;;;;;3.55;2.47;;;49.80;13.30;;;;;;6135670;23;20029;-74
2021/06/11 12:10:59;;;;;;;6.40;2.95;;;49.80;13.30;;;;;;6186555;23;20033;-75
2021/06/11 12:13:28;;;;;;;4.00;2.50;;;49.80;13.40;;;;;;6160298;23;20009;-75
2021/06/11 12:15:54;;;;;;;7.63;2.55;;;49.30;12.50;;;;;;6160930;23;20016;-75
2021/06/11 12:18:35;;;;;;;4.45;2.33;;;48.50;13.90;;;;;;6160003;23;20032;-74
2021/06/11 12:21:07;;;;;;;4.32;2.45;;;48.50;13.80;;;;;;6161407;23;20342;-75
2021/06/11 12:23:34;;;;;;;4.35;2.33;;;48.30;13.80;;;;;;6160608;23;20009;-74
2021/06/11 12:26:00;;;;;;;6.47;2.88;;;48.90;13.30;;;;;;6160335;23;20660;-74
2021/06/11 12:28:29;;;;;;;3.85;2.20;;;49.10;13.70;;;;;;6186390;23;20256;-75
2021/06/11 12:31:03;;;;;;;8.20;2.33;;;48.60;14.00;;;;;;6186456;23;20425;-74
2021/06/11 12:33:30;;;;;;;3.83;2.28;;;48.30;14.30;;;;;;6135798;23;20005;-74
2021/06/11 12:35:59;;;;;;;4.82;2.15;;;47.80;14.20;;;;;;6159825;23;20013;-74
2021/06/11 12:38:25;;;;;;;4.10;2.45;;;47.50;14.40;;;;;;6186268;23;20015;-74
2021/06/11 12:40:55;;;;;;;3.30;1.90;;;47.50;14.80;;;;;;6160080;23;20032;-74
2021/06/11 12:43:28;;;;;;;4.53;2.42;;;46.60;14.10;;;;;;6160608;23;20474;-74
2021/06/11 12:45:55;;;;;;;6.93;2.30;;;46.10;15.10;;;;;;6186326;23;20005;-74
2021/06/11 12:48:21;;;;;;;6.15;2.28;;;46.80;14.70;;;;;;6159905;23;20009;-74
2021/06/11 12:50:47;;;;;;;6.43;2.40;;;46.90;15.10;;;;;;6160065;23;20036;-75
2021/06/11 12:53:16;;;;;;;5.28;2.10;;;46.90;15.30;;;;;;6159917;23;20043;-74
2021/06/11 12:55:42;;;;;;;5.60;2.28;;;47.00;15.70;;;;;;6186238;23;20378;-73
2021/06/11 12:58:10;;;;;;;4.03;2.10;;;46.20;15.40;;;;;;6160126;23;20024;-74
2021/06/11 13:00:36;;;;;;;3.40;2.05;;;45.80;14.70;;;;;;6159640;23;20396;-73
2021/06/11 13:03:02;;;;;;;3.58;2.13;;;45.10;16.20;;;;;;6135357;23;20039;-73
2021/06/11 13:05:29;;;;;;;4.82;2.10;;;43.70;16.40;;;;;;6186030;23;20056;-73
2021/06/11 13:07:55;;;;;;;5.60;1.95;;;42.70;18.10;;;;;;6135247;23;20060;-74
2021/06/11 13:10:22;;;;;;;5.43;2.00;;;41.70;19.30;;;;;;6135068;23;20020;-73
2021/06/11 13:12:48;;;;;;;4.45;2.20;;;40.20;20.10;;;;;;6186277;23;20013;-73
2021/06/11 13:15:18;;;;;;;6.28;2.10;;;39.30;19.90;;;;;;6135170;23;20017;-73
2021/06/11 13:17:44;;;;;;;4.97;2.22;;;38.80;21.20;;;;;;6186359;23;20017;-73
2021/06/11 13:20:12;;;;;;;4.72;2.00;;;38.20;21.50;;;;;;6186335;23;20040;-73